MSC Kleven — CQHU — position and weather

sailwx.info

Track history (hours):
 
Tides and Currents Weather Stations Pressure Air Temp Water Temp Dewpoint Dewpoint Depression Visibility Wind Speed Wind Dir Waves Ship Positions

MSC Kleven

Last reported at 2017-Oct-13 19:00 UTC. Time now 2017-Oct-17 04:21 UTC.
Position N 33°53' W 076°16'.

Length 318 m; draft 11.6 m.

Type: Ship (hazmat cat A). MMSI: 255805596.

Date/timePositionNaut miles runAvg speedWind from/ knotsBaromVisibWave heightAir tempDewpointWater temp
2017-Oct-13 19:00N 33°53' W 076°16'18015.3
2017-Oct-13 07:13N 32°38' W 079°31'22 9.2
2017-Oct-13 04:47N 32°50' W 079°54'0 0.0
2017-Oct-12 14:11N 32°50' W 079°54'0 0.0
2017-Oct-12 13:59N 32°50' W 079°54'0 0.0
2017-Oct-12 12:42N 32°50' W 079°54'0 0.3
2017-Oct-12 12:30N 32°50' W 079°54'3 4.9
2017-Oct-12 11:52N 32°47' W 079°54'2010.4
2017-Oct-12 09:58N 32°38' W 079°33'0 0.3
2017-Oct-12 09:30N 32°38' W 079°33'0 0.3
2017-Oct-12 09:00N 32°38' W 079°33'86 2.6
2017-Oct-10 23:57N 32°08' W 081°08'0 0.0
2017-Oct-10 23:27N 32°08' W 081°08'0 0.0
2017-Oct-10 22:57N 32°08' W 081°08'0 0.0
2017-Oct-10 22:27N 32°08' W 081°08'0 0.0
2017-Oct-10 21:57N 32°08' W 081°08'0 0.0
2017-Oct-10 21:27N 32°08' W 081°08'0 0.0
2017-Oct-10 20:57N 32°08' W 081°08'0 0.0
2017-Oct-10 20:27N 32°08' W 081°08'0 0.0
2017-Oct-10 19:57N 32°08' W 081°08'0 0.0
2017-Oct-10 19:27N 32°08' W 081°08'0 0.0
2017-Oct-10 18:57N 32°08' W 081°08'0 0.0
2017-Oct-10 18:27N 32°08' W 081°08'0 0.0
2017-Oct-10 17:51N 32°08' W 081°08'0 0.0
2017-Oct-10 17:27N 32°08' W 081°08'0 0.0
2017-Oct-10 16:57N 32°08' W 081°08'0 0.0
2017-Oct-10 16:27N 32°08' W 081°08'0 0.0
2017-Oct-10 15:57N 32°08' W 081°08'0 0.0
2017-Oct-10 15:27N 32°08' W 081°08'0 0.0
2017-Oct-10 14:45N 32°08' W 081°08'0 0.0
2017-Oct-10 13:51N 32°08' W 081°08'0 0.0
2017-Oct-10 13:27N 32°08' W 081°08'0 0.0
2017-Oct-10 12:57N 32°08' W 081°08'0 0.0
2017-Oct-10 12:27N 32°08' W 081°08'0 0.0
2017-Oct-10 11:57N 32°08' W 081°08'0 0.0
2017-Oct-10 11:27N 32°08' W 081°08'0 0.0
2017-Oct-10 10:57N 32°08' W 081°08'0 0.0
2017-Oct-10 10:27N 32°08' W 081°08'0 0.0
2017-Oct-10 09:57N 32°08' W 081°08'0 0.0
2017-Oct-10 09:27N 32°08' W 081°08'0 0.0
2017-Oct-10 08:57N 32°08' W 081°08'0 0.0
2017-Oct-10 08:27N 32°08' W 081°08'0 0.1
2017-Oct-10 08:00N 32°08' W 081°08'0 0.3
2017-Oct-10 07:30N 32°08' W 081°08'2 4.5
2017-Oct-10 07:00N 32°06' W 081°07'3 5.7
2017-Oct-10 06:30N 32°05' W 081°03'3 6.6
2017-Oct-10 06:00N 32°06' W 080°60'611.1
2017-Oct-10 05:30N 32°02' W 080°55'611.7
2017-Oct-10 05:00N 32°01' W 080°48'713.1
2017-Oct-10 04:30N 31°58' W 080°41'3 5.7
2017-Oct-10 04:00N 31°57' W 080°38'1 1.5
2017-Oct-10 03:30N 31°58' W 080°38'0 0.0
2017-Oct-10 03:00N 31°58' W 080°38'0 0.0
2017-Oct-10 02:30N 31°58' W 080°38'0 0.0
2017-Oct-10 02:00N 31°58' W 080°38'0 0.0
2017-Oct-10 01:30N 31°58' W 080°38'0 0.0
2017-Oct-10 01:00N 31°58' W 080°38'0 0.0
2017-Oct-10 00:30N 31°58' W 080°38'0 0.0
2017-Oct-10 00:00N 31°58' W 080°38'0 0.1
2017-Oct-09 23:30N 31°58' W 080°38'0 0.0
2017-Oct-09 23:00N 31°58' W 080°38'0 0.2
2017-Oct-09 22:12N 31°58' W 080°37'0 0.2
2017-Oct-09 22:00N 31°58' W 080°37'0 0.0
2017-Oct-09 21:30N 31°58' W 080°37'0 0.0
2017-Oct-09 21:00N 31°58' W 080°37'0 0.0
2017-Oct-09 20:30N 31°58' W 080°37'0 0.0
2017-Oct-09 20:00N 31°58' W 080°37'0 0.0
2017-Oct-09 19:30N 31°58' W 080°37'0 0.0
2017-Oct-09 19:00N 31°58' W 080°37'0 0.0
2017-Oct-09 18:24N 31°58' W 080°37'0 0.1
2017-Oct-09 18:00N 31°58' W 080°37'0 0.1
2017-Oct-09 15:36N 31°58' W 080°38'0 0.5
2017-Oct-09 15:30N 31°58' W 080°38'2 3.9
2017-Oct-09 15:00N 31°56' W 080°37'5 9.5
2017-Oct-09 14:30N 31°52' W 080°35'5 9.6
2017-Oct-09 14:00N 31°47' W 080°32'1011.4
2017-Oct-09 13:09N 31°39' W 080°26'  
2017-Oct-07 07:42N 25°53' W 079°23'315.8
2017-Oct-07 07:30N 25°51' W 079°24'815.9
2017-Oct-07 07:00N 25°43' W 079°27'816.5
2017-Oct-07 06:31N 25°35' W 079°30'  
Track history (hours):
 
Tides and Currents Weather Stations Pressure Air Temp Water Temp Dewpoint Dewpoint Depression Visibility Wind Speed Wind Dir Waves Ship Positions

MSC Kleven

Last reported at 2017-Oct-13 19:00 UTC. Time now 2017-Oct-17 04:21 UTC.
Position N 33°53' W 076°16'.

Length 318 m; draft 11.6 m.

Type: Ship (hazmat cat A). MMSI: 255805596.

Date/timePositionNaut miles runAvg speedWind from/ knotsBaromVisibWave heightAir tempDewpointWater temp
2017-Oct-13 19:00N 33°53' W 076°16'18015.3
2017-Oct-13 07:13N 32°38' W 079°31'22 9.2
2017-Oct-13 04:47N 32°50' W 079°54'0 0.0
2017-Oct-12 14:11N 32°50' W 079°54'0 0.0
2017-Oct-12 13:59N 32°50' W 079°54'0 0.0
2017-Oct-12 12:42N 32°50' W 079°54'0 0.3
2017-Oct-12 12:30N 32°50' W 079°54'3 4.9
2017-Oct-12 11:52N 32°47' W 079°54'2010.4
2017-Oct-12 09:58N 32°38' W 079°33'0 0.3
2017-Oct-12 09:30N 32°38' W 079°33'0 0.3
2017-Oct-12 09:00N 32°38' W 079°33'86 2.6
2017-Oct-10 23:57N 32°08' W 081°08'0 0.0
2017-Oct-10 23:27N 32°08' W 081°08'0 0.0
2017-Oct-10 22:57N 32°08' W 081°08'0 0.0
2017-Oct-10 22:27N 32°08' W 081°08'0 0.0
2017-Oct-10 21:57N 32°08' W 081°08'0 0.0
2017-Oct-10 21:27N 32°08' W 081°08'0 0.0
2017-Oct-10 20:57N 32°08' W 081°08'0 0.0
2017-Oct-10 20:27N 32°08' W 081°08'0 0.0
2017-Oct-10 19:57N 32°08' W 081°08'0 0.0
2017-Oct-10 19:27N 32°08' W 081°08'0 0.0
2017-Oct-10 18:57N 32°08' W 081°08'0 0.0
2017-Oct-10 18:27N 32°08' W 081°08'0 0.0
2017-Oct-10 17:51N 32°08' W 081°08'0 0.0
2017-Oct-10 17:27N 32°08' W 081°08'0 0.0
2017-Oct-10 16:57N 32°08' W 081°08'0 0.0
2017-Oct-10 16:27N 32°08' W 081°08'0 0.0
2017-Oct-10 15:57N 32°08' W 081°08'0 0.0
2017-Oct-10 15:27N 32°08' W 081°08'0 0.0
2017-Oct-10 14:45N 32°08' W 081°08'0 0.0
2017-Oct-10 13:51N 32°08' W 081°08'0 0.0
2017-Oct-10 13:27N 32°08' W 081°08'0 0.0
2017-Oct-10 12:57N 32°08' W 081°08'0 0.0
2017-Oct-10 12:27N 32°08' W 081°08'0 0.0
2017-Oct-10 11:57N 32°08' W 081°08'0 0.0
2017-Oct-10 11:27N 32°08' W 081°08'0 0.0
2017-Oct-10 10:57N 32°08' W 081°08'0 0.0
2017-Oct-10 10:27N 32°08' W 081°08'0 0.0
2017-Oct-10 09:57N 32°08' W 081°08'0 0.0
2017-Oct-10 09:27N 32°08' W 081°08'0 0.0
2017-Oct-10 08:57N 32°08' W 081°08'0 0.0
2017-Oct-10 08:27N 32°08' W 081°08'0 0.1
2017-Oct-10 08:00N 32°08' W 081°08'0 0.3
2017-Oct-10 07:30N 32°08' W 081°08'2 4.5
2017-Oct-10 07:00N 32°06' W 081°07'3 5.7
2017-Oct-10 06:30N 32°05' W 081°03'3 6.6
2017-Oct-10 06:00N 32°06' W 080°60'611.1
2017-Oct-10 05:30N 32°02' W 080°55'611.7
2017-Oct-10 05:00N 32°01' W 080°48'713.1
2017-Oct-10 04:30N 31°58' W 080°41'3 5.7
2017-Oct-10 04:00N 31°57' W 080°38'1 1.5
2017-Oct-10 03:30N 31°58' W 080°38'0 0.0
2017-Oct-10 03:00N 31°58' W 080°38'0 0.0
2017-Oct-10 02:30N 31°58' W 080°38'0 0.0
2017-Oct-10 02:00N 31°58' W 080°38'0 0.0
2017-Oct-10 01:30N 31°58' W 080°38'0 0.0
2017-Oct-10 01:00N 31°58' W 080°38'0 0.0
2017-Oct-10 00:30N 31°58' W 080°38'0 0.0
2017-Oct-10 00:00N 31°58' W 080°38'0 0.1
2017-Oct-09 23:30N 31°58' W 080°38'0 0.0
2017-Oct-09 23:00N 31°58' W 080°38'0 0.2
2017-Oct-09 22:12N 31°58' W 080°37'0 0.2
2017-Oct-09 22:00N 31°58' W 080°37'0 0.0
2017-Oct-09 21:30N 31°58' W 080°37'0 0.0
2017-Oct-09 21:00N 31°58' W 080°37'0 0.0
2017-Oct-09 20:30N 31°58' W 080°37'0 0.0
2017-Oct-09 20:00N 31°58' W 080°37'0 0.0
2017-Oct-09 19:30N 31°58' W 080°37'0 0.0
2017-Oct-09 19:00N 31°58' W 080°37'0 0.0
2017-Oct-09 18:24N 31°58' W 080°37'0 0.1
2017-Oct-09 18:00N 31°58' W 080°37'0 0.1
2017-Oct-09 15:36N 31°58' W 080°38'0 0.5
2017-Oct-09 15:30N 31°58' W 080°38'2 3.9
2017-Oct-09 15:00N 31°56' W 080°37'5 9.5
2017-Oct-09 14:30N 31°52' W 080°35'5 9.6
2017-Oct-09 14:00N 31°47' W 080°32'1011.4
2017-Oct-09 13:09N 31°39' W 080°26'  
2017-Oct-07 07:42N 25°53' W 079°23'315.8
2017-Oct-07 07:30N 25°51' W 079°24'815.9
2017-Oct-07 07:00N 25°43' W 079°27'816.5
2017-Oct-07 06:31N 25°35' W 079°30'  

Dump ship's entire track history